Time,TemperatureF,DewpointF,PressureIn,WindDirection,WindDirectionDegrees,WindSpeedMPH,WindSpeedGustMPH,Humidity,HourlyPrecipIn,Conditions,Clouds,dailyrainin,SoftwareType,DateUTC
2013-01-26 00:01:00,35.2,21.9,30.19,WNW,290,0.0,0.0,58,0.00,CLR,,0.00,WeatherDisplay:10.37,2013-01-26 06:01:00,
2013-01-26 00:06:00,35.2,21.9,30.19,WNW,290,0.0,0.0,58,0.00,CLR,,0.00,WeatherDisplay:10.37,2013-01-26 06:06:00,
2013-01-26 00:11:00,35.2,22.3,30.19,WNW,290,0.0,0.0,59,0.00,CLR,,0.00,WeatherDisplay:10.37,2013-01-26 06:11:00,
2013-01-26 00:16:00,35.1,22.2,30.22,WNW,290,0.0,0.0,59,0.00,CLR,,0.00,WeatherDisplay:10.37,2013-01-26 06:16:00,
2013-01-26 00:21:00,34.9,22.0,30.22,WNW,290,0.0,0.0,59,0.00,CLR,,0.00,WeatherDisplay:10.37,2013-01-26 06:21:00,
2013-01-26 00:26:00,34.7,21.8,30.22,WNW,290,0.0,0.0,59,0.00,CLR,,0.00,WeatherDisplay:10.37,2013-01-26 06:26:00,
2013-01-26 00:31:00,34.5,21.7,30.22,WNW,290,0.0,0.0,59,0.00,CLR,,0.00,WeatherDisplay:10.37,2013-01-26 06:31:00,
2013-01-26 00:36:00,34.5,21.7,30.22,WNW,290,0.0,0.0,59,0.00,CLR,,0.00,WeatherDisplay:10.37,2013-01-26 06:36:00,
2013-01-26 00:41:00,34.7,21.8,30.22,WNW,290,0.0,0.0,59,0.00,CLR,,0.00,WeatherDisplay:10.37,2013-01-26 06:41:00,
2013-01-26 00:46:00,34.5,21.7,30.22,WNW,290,0.0,0.0,59,0.00,CLR,,0.00,WeatherDisplay:10.37,2013-01-26 06:46:00,
2013-01-26 00:51:00,34.3,21.5,30.22,WNW,290,0.0,0.0,59,0.00,CLR,,0.00,WeatherDisplay:10.37,2013-01-26 06:51:00,
2013-01-26 00:56:00,34.0,21.1,30.22,WNW,290,0.0,0.0,59,0.00,CLR,,0.00,WeatherDisplay:10.37,2013-01-26 06:56:00,
2013-01-26 01:01:00,33.8,21.4,30.22,WNW,290,0.0,0.0,60,0.00,CLR,,0.00,WeatherDisplay:10.37,2013-01-26 07:01:00,
2013-01-26 01:06:00,33.6,21.2,30.22,WNW,290,0.0,0.0,60,0.00,CLR,,0.00,WeatherDisplay:10.37,2013-01-26 07:06:00,
2013-01-26 01:11:00,33.4,21.0,30.22,WNW,290,0.0,0.0,60,0.00,CLR,,0.00,WeatherDisplay:10.37,2013-01-26 07:11:00,
2013-01-26 01:16:00,33.3,21.3,30.22,WNW,290,0.0,0.0,61,0.00,CLR,,0.00,WeatherDisplay:10.37,2013-01-26 07:16:00,
2013-01-26 01:21:00,33.3,21.3,30.22,WNW,290,0.0,0.0,61,0.00,CLR,,0.00,WeatherDisplay:10.37,2013-01-26 07:21:00,
2013-01-26 01:26:00,33.3,21.6,30.22,WNW,290,0.0,0.0,62,0.00,CLR,,0.00,WeatherDisplay:10.37,2013-01-26 07:26:00,
2013-01-26 01:31:00,33.4,21.8,30.22,WNW,290,0.0,0.0,62,0.00,CLR,,0.00,WeatherDisplay:10.37,2013-01-26 07:31:00,
2013-01-26 01:36:00,33.3,21.6,30.22,WNW,290,0.0,0.0,62,0.00,CLR,,0.00,WeatherDisplay:10.37,2013-01-26 07:36:00,
2013-01-26 01:41:00,33.3,21.6,30.22,WNW,290,0.0,0.0,62,0.00,CLR,,0.00,WeatherDisplay:10.37,2013-01-26 07:41:00,
2013-01-26 01:46:00,33.3,22.0,30.22,WNW,290,0.0,0.0,63,0.00,CLR,,0.00,WeatherDisplay:10.37,2013-01-26 07:46:00,
2013-01-26 01:51:00,33.6,22.4,30.22,WNW,290,0.0,0.0,63,0.00,CLR,,0.00,WeatherDisplay:10.37,2013-01-26 07:51:00,
2013-01-26 01:56:00,33.6,22.7,30.22,WNW,290,0.0,0.0,64,0.00,CLR,,0.00,WeatherDisplay:10.37,2013-01-26 07:56:00,
2013-01-26 02:01:00,33.6,22.4,30.22,WNW,290,0.0,0.0,63,0.00,CLR,,0.00,WeatherDisplay:10.37,2013-01-26 08:01:00,
2013-01-26 02:06:00,33.3,22.4,30.22,WNW,290,0.0,0.0,64,0.00,CLR,,0.00,WeatherDisplay:10.37,2013-01-26 08:06:00,
2013-01-26 02:11:00,33.3,22.4,30.22,WNW,290,0.0,0.0,64,0.00,CLR,,0.00,WeatherDisplay:10.37,2013-01-26 08:11:00,
2013-01-26 02:16:00,33.3,22.4,30.22,WNW,290,0.0,0.0,64,0.00,CLR,,0.00,WeatherDisplay:10.37,2013-01-26 08:16:00,
2013-01-26 02:21:00,33.1,22.2,30.22,WNW,290,0.0,0.0,64,0.00,CLR,,0.00,WeatherDisplay:10.37,2013-01-26 08:21:00,
2013-01-26 02:26:00,32.9,22.4,30.22,WNW,290,0.0,0.0,65,0.00,CLR,,0.00,WeatherDisplay:10.37,2013-01-26 08:26:00,
2013-01-26 02:31:00,32.9,22.4,30.22,WNW,290,0.0,0.0,65,0.00,CLR,,0.00,WeatherDisplay:10.37,2013-01-26 08:31:00,
2013-01-26 02:36:00,32.9,22.4,30.22,WNW,290,0.0,0.0,65,0.00,CLR,,0.00,WeatherDisplay:10.37,2013-01-26 08:36:00,
2013-01-26 02:41:00,32.7,22.2,30.22,WNW,290,0.0,0.0,65,0.00,CLR,,0.00,WeatherDisplay:10.37,2013-01-26 08:41:00,
2013-01-26 02:46:00,32.7,22.6,30.22,WNW,291,0.0,0.0,66,0.00,CLR,,0.00,WeatherDisplay:10.37,2013-01-26 08:46:00,
2013-01-26 02:51:00,32.7,22.6,30.22,WNW,291,0.0,0.0,66,0.00,CLR,,0.00,WeatherDisplay:10.37,2013-01-26 08:51:00,
2013-01-26 02:56:00,32.7,22.6,30.22,WNW,291,0.0,0.0,66,0.00,CLR,,0.00,WeatherDisplay:10.37,2013-01-26 08:56:00,
2013-01-26 03:01:00,32.7,22.6,30.22,WNW,291,0.0,0.0,66,0.00,CLR,,0.00,WeatherDisplay:10.37,2013-01-26 09:01:00,
2013-01-26 03:06:00,32.9,22.8,30.22,WNW,291,0.0,0.0,66,0.00,CLR,,0.00,WeatherDisplay:10.37,2013-01-26 09:06:00,
2013-01-26 03:11:00,32.9,22.8,30.22,WNW,291,0.0,0.0,66,0.00,CLR,,0.00,WeatherDisplay:10.37,2013-01-26 09:11:00,
2013-01-26 03:16:00,32.9,22.8,30.25,WNW,291,0.0,0.0,66,0.00,CLR,,0.00,WeatherDisplay:10.37,2013-01-26 09:16:00,
2013-01-26 03:21:00,32.9,22.8,30.25,WNW,291,0.0,0.0,66,0.00,CLR,,0.00,WeatherDisplay:10.37,2013-01-26 09:21:00,
2013-01-26 03:26:00,32.7,22.6,30.25,WNW,291,0.0,0.0,66,0.00,CLR,,0.00,WeatherDisplay:10.37,2013-01-26 09:26:00,
2013-01-26 03:31:00,32.5,22.4,30.22,WNW,291,0.0,0.0,66,0.00,CLR,,0.00,WeatherDisplay:10.37,2013-01-26 09:31:00,
2013-01-26 03:36:00,32.7,22.6,30.22,WNW,291,0.0,0.0,66,0.00,CLR,,0.00,WeatherDisplay:10.37,2013-01-26 09:36:00,
2013-01-26 03:41:00,32.7,22.6,30.22,WNW,291,0.0,0.0,66,0.00,CLR,,0.00,WeatherDisplay:10.37,2013-01-26 09:41:00,
2013-01-26 03:46:00,32.7,22.6,30.22,WNW,291,0.0,0.0,66,0.00,CLR,,0.00,WeatherDisplay:10.37,2013-01-26 09:46:00,
2013-01-26 03:51:00,32.9,22.8,30.22,WNW,291,0.0,0.0,66,0.00,CLR,,0.00,WeatherDisplay:10.37,2013-01-26 09:51:00,
2013-01-26 03:56:00,32.9,22.8,30.22,WNW,291,0.0,0.0,66,0.00,CLR,,0.00,WeatherDisplay:10.37,2013-01-26 09:56:00,
2013-01-26 04:01:00,32.7,22.6,30.22,WNW,291,0.0,0.0,66,0.00,CLR,,0.00,WeatherDisplay:10.37,2013-01-26 10:01:00,
2013-01-26 04:06:00,32.5,22.1,30.22,WNW,291,0.0,0.0,65,0.00,CLR,,0.00,WeatherDisplay:10.37,2013-01-26 10:06:00,
2013-01-26 04:11:00,32.4,21.9,30.22,WNW,291,0.0,0.0,65,0.00,CLR,,0.00,WeatherDisplay:10.37,2013-01-26 10:11:00,
2013-01-26 04:16:00,32.4,21.9,30.22,WNW,291,0.0,0.0,65,0.00,CLR,,0.00,WeatherDisplay:10.37,2013-01-26 10:16:00,
2013-01-26 04:21:00,32.4,21.9,30.22,WNW,291,0.0,0.0,65,0.00,CLR,,0.00,WeatherDisplay:10.37,2013-01-26 10:21:00,
2013-01-26 04:26:00,32.4,21.9,30.22,WNW,291,0.0,0.0,65,0.00,CLR,,0.00,WeatherDisplay:10.37,2013-01-26 10:26:00,
2013-01-26 04:31:00,32.5,22.1,30.22,WNW,291,0.0,0.0,65,0.00,CLR,,0.00,WeatherDisplay:10.37,2013-01-26 10:31:00,
2013-01-26 04:36:00,32.9,22.4,30.22,WNW,291,0.0,0.0,65,0.00,CLR,,0.00,WeatherDisplay:10.37,2013-01-26 10:36:00,
2013-01-26 04:41:00,33.3,22.8,30.22,WNW,291,0.0,0.0,65,0.00,CLR,,0.00,WeatherDisplay:10.37,2013-01-26 10:41:00,
2013-01-26 04:46:00,33.4,22.6,30.25,WNW,291,0.0,0.0,64,0.00,CLR,,0.00,WeatherDisplay:10.37,2013-01-26 10:46:00,
2013-01-26 04:51:00,33.3,22.4,30.25,WNW,291,0.0,0.0,64,0.00,CLR,,0.00,WeatherDisplay:10.37,2013-01-26 10:51:00,
2013-01-26 04:56:00,33.3,22.4,30.25,WNW,291,0.0,0.0,64,0.00,CLR,,0.00,WeatherDisplay:10.37,2013-01-26 10:56:00,
2013-01-26 05:01:00,33.1,22.2,30.25,WNW,291,0.0,0.0,64,0.00,CLR,,0.00,WeatherDisplay:10.37,2013-01-26 11:01:00,
2013-01-26 05:06:00,32.9,22.0,30.25,WNW,291,0.0,0.0,64,0.00,CLR,,0.00,WeatherDisplay:10.37,2013-01-26 11:06:00,
2013-01-26 05:11:00,32.7,21.9,30.25,WNW,291,0.0,0.0,64,0.00,CLR,,0.00,WeatherDisplay:10.37,2013-01-26 11:11:00,
2013-01-26 05:16:00,32.7,22.2,30.25,WNW,291,0.0,0.0,65,0.00,CLR,,0.00,WeatherDisplay:10.37,2013-01-26 11:16:00,
2013-01-26 05:21:00,32.7,22.2,30.25,WNW,291,0.0,0.0,65,0.00,CLR,,0.00,WeatherDisplay:10.37,2013-01-26 11:21:00,
2013-01-26 05:26:00,32.5,22.1,30.25,WNW,291,0.0,0.0,65,0.00,CLR,,0.00,WeatherDisplay:10.37,2013-01-26 11:26:00,
2013-01-26 05:31:00,32.5,22.1,30.25,WNW,291,0.0,0.0,65,0.00,CLR,,0.00,WeatherDisplay:10.37,2013-01-26 11:31:00,
2013-01-26 05:36:00,32.4,22.3,30.25,WNW,291,0.0,0.0,66,0.00,CLR,,0.00,WeatherDisplay:10.37,2013-01-26 11:36:00,
2013-01-26 05:41:00,32.4,22.3,30.25,WNW,291,0.0,0.0,66,0.00,CLR,,0.00,WeatherDisplay:10.37,2013-01-26 11:41:00,
2013-01-26 05:46:00,32.2,22.1,30.25,WNW,291,0.0,0.0,66,0.00,CLR,,0.00,WeatherDisplay:10.37,2013-01-26 11:46:00,
2013-01-26 05:51:00,32.2,22.1,30.25,WNW,291,0.0,0.0,66,0.00,CLR,,0.00,WeatherDisplay:10.37,2013-01-26 11:51:00,
2013-01-26 05:56:00,32.2,22.1,30.25,WNW,291,0.0,0.0,66,0.00,CLR,,0.00,WeatherDisplay:10.37,2013-01-26 11:56:00,
2013-01-26 06:01:00,31.8,21.7,30.25,WNW,291,0.0,0.0,66,0.00,CLR,,0.00,WeatherDisplay:10.37,2013-01-26 12:01:00,
2013-01-26 06:06:00,31.5,21.0,30.25,WNW,291,0.0,0.0,65,0.00,CLR,,0.00,WeatherDisplay:10.37,2013-01-26 12:06:00,
2013-01-26 06:11:00,31.5,21.4,30.25,WNW,291,0.0,0.0,66,0.00,CLR,,0.00,WeatherDisplay:10.37,2013-01-26 12:11:00,
2013-01-26 06:16:00,31.3,21.2,30.28,WNW,291,0.0,0.0,66,0.00,CLR,,0.00,WeatherDisplay:10.37,2013-01-26 12:16:00,
2013-01-26 06:21:00,31.5,21.4,30.28,WNW,291,0.0,0.0,66,0.00,CLR,,0.00,WeatherDisplay:10.37,2013-01-26 12:21:00,
2013-01-26 06:26:00,31.8,21.7,30.28,WNW,291,0.0,0.0,66,0.00,CLR,,0.00,WeatherDisplay:10.37,2013-01-26 12:26:00,
2013-01-26 06:31:00,32.2,22.1,30.25,WNW,291,0.0,0.0,66,0.00,CLR,,0.00,WeatherDisplay:10.37,2013-01-26 12:31:00,
2013-01-26 06:36:00,32.5,22.4,30.25,WNW,291,0.0,0.0,66,0.00,CLR,,0.00,WeatherDisplay:10.37,2013-01-26 12:36:00,
2013-01-26 06:41:00,32.5,22.4,30.25,WNW,291,0.0,0.0,66,0.00,CLR,,0.00,WeatherDisplay:10.37,2013-01-26 12:41:00,
2013-01-26 06:46:00,32.7,22.6,30.28,WNW,291,0.0,0.0,66,0.00,CLR,,0.00,WeatherDisplay:10.37,2013-01-26 12:46:00,
2013-01-26 06:51:00,33.3,22.8,30.28,NW,310,0.0,0.0,65,0.00,CLR,,0.00,WeatherDisplay:10.37,2013-01-26 12:51:00,
2013-01-26 06:56:00,33.6,22.7,30.28,NW,318,0.0,0.0,64,0.00,CLR,,0.00,WeatherDisplay:10.37,2013-01-26 12:56:00,
2013-01-26 07:01:00,33.8,21.8,30.25,NW,322,0.0,0.0,61,0.00,CLR,,0.00,WeatherDisplay:10.37,2013-01-26 13:01:00,
2013-01-26 07:06:00,34.2,21.7,30.25,North,0,0.0,3.5,60,0.00,CLR,,0.00,WeatherDisplay:10.37,2013-01-26 13:06:00,
2013-01-26 07:11:00,34.3,21.5,30.25,North,0,0.0,0.0,59,0.00,CLR,,0.00,WeatherDisplay:10.37,2013-01-26 13:11:00,
2013-01-26 07:16:00,34.5,21.7,30.25,North,0,0.0,2.3,59,0.00,CLR,,0.00,WeatherDisplay:10.37,2013-01-26 13:16:00,
2013-01-26 07:21:00,34.5,21.2,30.25,North,0,0.0,0.0,58,0.00,CLR,,0.00,WeatherDisplay:10.37,2013-01-26 13:21:00,
2013-01-26 07:26:00,34.2,20.9,30.25,North,0,0.0,0.0,58,0.00,CLR,,0.00,WeatherDisplay:10.37,2013-01-26 13:26:00,
2013-01-26 07:31:00,34.0,20.7,30.25,North,0,0.0,0.0,58,0.00,CLR,,0.00,WeatherDisplay:10.37,2013-01-26 13:31:00,
2013-01-26 07:36:00,34.0,20.3,30.25,North,0,0.0,0.0,57,0.00,CLR,,0.00,WeatherDisplay:10.37,2013-01-26 13:36:00,
2013-01-26 07:41:00,33.8,20.2,30.25,North,0,0.0,0.0,57,0.00,CLR,,0.00,WeatherDisplay:10.37,2013-01-26 13:41:00,
2013-01-26 07:46:00,33.6,20.4,30.28,North,0,0.0,0.0,58,0.00,CLR,,0.00,WeatherDisplay:10.37,2013-01-26 13:46:00,
2013-01-26 07:51:00,33.6,20.4,30.28,North,0,0.0,0.0,58,0.00,CLR,,0.00,WeatherDisplay:10.37,2013-01-26 13:51:00,
2013-01-26 07:56:00,33.6,20.4,30.28,North,0,0.0,0.0,58,0.00,CLR,,0.00,WeatherDisplay:10.37,2013-01-26 13:56:00,
2013-01-26 08:01:00,33.4,20.6,30.28,North,0,0.0,0.0,59,0.00,CLR,,0.00,WeatherDisplay:10.37,2013-01-26 14:01:00,
2013-01-26 08:06:00,33.6,20.8,30.28,North,0,0.0,0.0,59,0.00,CLR,,0.00,WeatherDisplay:10.37,2013-01-26 14:06:00,
2013-01-26 08:11:00,33.8,21.0,30.28,North,0,0.0,0.0,59,0.00,CLR,,0.00,WeatherDisplay:10.37,2013-01-26 14:11:00,
2013-01-26 08:16:00,33.8,21.4,30.28,North,0,0.0,0.0,60,0.00,CLR,,0.00,WeatherDisplay:10.37,2013-01-26 14:16:00,
2013-01-26 08:21:00,33.8,21.4,30.28,North,0,0.0,0.0,60,0.00,CLR,,0.00,WeatherDisplay:10.37,2013-01-26 14:21:00,
2013-01-26 08:26:00,34.2,22.1,30.28,North,0,0.0,0.0,61,0.00,CLR,,0.00,WeatherDisplay:10.37,2013-01-26 14:26:00,
2013-01-26 08:31:00,34.3,22.3,30.28,North,0,0.0,0.0,61,0.00,CLR,,0.00,WeatherDisplay:10.37,2013-01-26 14:31:00,
2013-01-26 08:36:00,34.9,23.2,30.28,North,0,0.0,0.0,62,0.00,CLR,,0.00,WeatherDisplay:10.37,2013-01-26 14:36:00,
2013-01-26 08:41:00,35.1,23.3,30.28,North,0,0.0,0.0,62,0.00,CLR,,0.00,WeatherDisplay:10.37,2013-01-26 14:41:00,
2013-01-26 08:46:00,35.4,24.1,30.28,North,0,0.0,0.0,63,0.00,CLR,,0.00,WeatherDisplay:10.37,2013-01-26 14:46:00,
2013-01-26 08:51:00,36.0,24.6,30.28,North,0,0.0,0.0,63,0.00,CLR,,0.00,WeatherDisplay:10.37,2013-01-26 14:51:00,
2013-01-26 08:56:00,36.3,24.9,30.28,North,0,0.0,0.0,63,0.00,CLR,,0.00,WeatherDisplay:10.37,2013-01-26 14:56:00,
2013-01-26 09:01:00,36.7,25.3,30.28,North,0,0.0,0.0,63,0.00,CLR,,0.00,WeatherDisplay:10.37,2013-01-26 15:01:00,
2013-01-26 09:06:00,37.4,25.9,30.28,North,0,0.0,0.0,63,0.00,CLR,,0.00,WeatherDisplay:10.37,2013-01-26 15:06:00,
2013-01-26 09:11:00,37.8,26.3,30.28,North,0,0.0,0.0,63,0.00,CLR,,0.00,WeatherDisplay:10.37,2013-01-26 15:11:00,
2013-01-26 09:16:00,38.1,26.2,30.28,North,0,0.0,0.0,62,0.00,CLR,,0.00,WeatherDisplay:10.37,2013-01-26 15:16:00,
2013-01-26 09:21:00,38.5,27.0,30.28,North,0,0.0,0.0,63,0.00,CLR,,0.00,WeatherDisplay:10.37,2013-01-26 15:21:00,
2013-01-26 09:26:00,39.2,27.3,30.28,North,0,0.0,0.0,62,0.00,CLR,,0.00,WeatherDisplay:10.37,2013-01-26 15:26:00,
2013-01-26 09:31:00,39.7,27.8,30.31,North,0,0.0,0.0,62,0.00,CLR,,0.00,WeatherDisplay:10.37,2013-01-26 15:31:00,
2013-01-26 09:36:00,40.3,27.9,30.31,North,353,0.0,0.0,61,0.00,CLR,,0.00,WeatherDisplay:10.37,2013-01-26 15:36:00,
2013-01-26 09:41:00,40.8,27.6,30.31,North,357,0.0,3.5,59,0.00,CLR,,0.00,WeatherDisplay:10.37,2013-01-26 15:41:00,
2013-01-26 09:46:00,41.2,26.2,30.31,NNE,20,3.6,4.6,55,0.00,CLR,,0.00,WeatherDisplay:10.37,2013-01-26 15:46:00,
2013-01-26 09:51:00,42.1,27.1,30.31,NNE,24,0.0,0.0,55,0.00,CLR,,0.00,WeatherDisplay:10.37,2013-01-26 15:51:00,
2013-01-26 09:56:00,42.3,25.9,30.31,ENE,65,3.1,4.6,52,0.00,CLR,,0.00,WeatherDisplay:10.37,2013-01-26 15:56:00,
2013-01-26 10:01:00,42.6,24.8,30.31,NE,53,4.0,5.8,49,0.00,CLR,,0.00,WeatherDisplay:10.37,2013-01-26 16:01:00,
2013-01-26 10:06:00,43.0,23.6,30.31,NE,41,3.6,3.6,46,0.00,CLR,,0.00,WeatherDisplay:10.37,2013-01-26 16:06:00,
2013-01-26 10:11:00,43.5,24.1,30.31,NNE,28,2.7,3.5,46,0.00,CLR,,0.00,WeatherDisplay:10.37,2013-01-26 16:11:00,
2013-01-26 10:16:00,43.9,24.4,30.31,ESE,103,2.7,3.5,46,0.00,CLR,,0.00,WeatherDisplay:10.37,2013-01-26 16:16:00,
2013-01-26 10:21:00,44.1,24.6,30.31,NE,47,3.1,5.8,46,0.00,CLR,,0.00,WeatherDisplay:10.37,2013-01-26 16:21:00,
2013-01-26 10:26:00,44.4,24.9,30.31,NE,56,3.1,3.5,46,0.00,CLR,,0.00,WeatherDisplay:10.37,2013-01-26 16:26:00,
2013-01-26 10:31:00,45.1,25.6,30.31,East,79,0.0,3.5,46,0.00,CLR,,0.00,WeatherDisplay:10.37,2013-01-26 16:31:00,
2013-01-26 10:36:00,45.5,25.9,30.31,NE,36,3.1,4.6,46,0.00,CLR,,0.00,WeatherDisplay:10.37,2013-01-26 16:36:00,
2013-01-26 10:41:00,46.2,26.6,30.31,ESE,110,3.6,3.6,46,0.00,CLR,,0.00,WeatherDisplay:10.37,2013-01-26 16:41:00,
2013-01-26 10:46:00,46.9,26.7,30.31,East,83,3.6,4.6,45,0.00,CLR,,0.00,WeatherDisplay:10.37,2013-01-26 16:46:00,
2013-01-26 10:51:00,47.5,27.2,30.31,South,179,3.1,5.8,45,0.00,CLR,,0.00,WeatherDisplay:10.37,2013-01-26 16:51:00,
2013-01-26 10:56:00,48.0,27.7,30.31,SE,137,3.6,3.6,45,0.00,CLR,,0.00,WeatherDisplay:10.37,2013-01-26 16:56:00,
2013-01-26 11:01:00,48.9,28.5,30.31,SE,124,3.6,5.8,45,0.00,CLR,,0.00,WeatherDisplay:10.37,2013-01-26 17:01:00,
2013-01-26 11:06:00,49.5,29.0,30.31,SE,129,3.6,4.6,45,0.00,CLR,,0.00,WeatherDisplay:10.37,2013-01-26 17:06:00,
2013-01-26 11:11:00,49.8,29.3,30.31,SE,135,4.5,4.5,45,0.00,CLR,,0.00,WeatherDisplay:10.37,2013-01-26 17:11:00,
2013-01-26 11:16:00,50.0,29.5,30.31,ENE,77,2.7,6.3,45,0.00,CLR,,0.00,WeatherDisplay:10.37,2013-01-26 17:16:00,
2013-01-26 11:21:00,50.2,29.6,30.31,SE,143,3.1,3.5,45,0.00,CLR,,0.00,WeatherDisplay:10.37,2013-01-26 17:21:00,
2013-01-26 11:26:00,50.2,29.6,30.31,East,97,4.5,5.8,45,0.00,CLR,,0.00,WeatherDisplay:10.37,2013-01-26 17:26:00,
2013-01-26 11:31:00,50.4,29.8,30.31,SE,134,3.6,5.8,45,0.00,CLR,,0.00,WeatherDisplay:10.37,2013-01-26 17:31:00,
2013-01-26 11:36:00,50.5,30.0,30.31,NE,39,3.1,4.6,45,0.00,CLR,,0.00,WeatherDisplay:10.37,2013-01-26 17:36:00,
2013-01-26 11:41:00,50.7,30.1,30.31,ESE,104,4.5,5.8,45,0.00,CLR,,0.00,WeatherDisplay:10.37,2013-01-26 17:41:00,
2013-01-26 11:46:00,50.7,30.1,30.28,North,353,4.0,5.8,45,0.00,CLR,,0.00,WeatherDisplay:10.37,2013-01-26 17:46:00,
2013-01-26 11:51:00,50.9,30.3,30.28,NNE,29,3.6,3.6,45,0.00,CLR,,0.00,WeatherDisplay:10.37,2013-01-26 17:51:00,
2013-01-26 11:56:00,50.9,30.3,30.28,NNE,24,4.5,5.8,45,0.00,CLR,,0.00,WeatherDisplay:10.37,2013-01-26 17:56:00,
2013-01-26 12:01:00,50.9,30.3,30.28,NE,52,4.0,5.8,45,0.00,CLR,,0.00,WeatherDisplay:10.37,2013-01-26 18:01:00,
2013-01-26 12:06:00,50.9,30.3,30.28,SE,134,4.0,5.8,45,0.00,CLR,,0.00,WeatherDisplay:10.37,2013-01-26 18:06:00,
2013-01-26 12:11:00,51.1,30.5,30.28,NNE,30,3.1,4.6,45,0.00,CLR,,0.00,WeatherDisplay:10.37,2013-01-26 18:11:00,
2013-01-26 12:16:00,51.1,30.5,30.28,North,357,5.4,8.1,45,0.00,CLR,,0.00,WeatherDisplay:10.37,2013-01-26 18:16:00,
2013-01-26 12:21:00,51.1,30.5,30.28,SE,136,2.7,4.6,45,0.00,CLR,,0.00,WeatherDisplay:10.37,2013-01-26 18:21:00,
2013-01-26 12:26:00,51.4,30.8,30.28,ENE,67,3.6,5.8,45,0.00,CLR,,0.00,WeatherDisplay:10.37,2013-01-26 18:26:00,
2013-01-26 12:31:00,51.6,30.9,30.28,ESE,113,4.0,4.6,45,0.00,CLR,,0.00,WeatherDisplay:10.37,2013-01-26 18:31:00,
2013-01-26 12:36:00,52.0,30.7,30.28,ESE,122,2.7,3.5,44,0.00,CLR,,0.00,WeatherDisplay:10.37,2013-01-26 18:36:00,
2013-01-26 12:41:00,52.2,30.9,30.28,ENE,67,3.1,4.6,44,0.00,CLR,,0.00,WeatherDisplay:10.37,2013-01-26 18:41:00,
2013-01-26 12:46:00,52.2,30.9,30.28,NE,45,3.6,3.6,44,0.00,CLR,,0.00,WeatherDisplay:10.37,2013-01-26 18:46:00,
2013-01-26 12:51:00,52.3,31.0,30.28,SE,138,3.6,4.6,44,0.00,CLR,,0.00,WeatherDisplay:10.37,2013-01-26 18:51:00,
2013-01-26 12:56:00,52.5,31.2,30.28,East,79,3.6,3.6,44,0.00,CLR,,0.00,WeatherDisplay:10.37,2013-01-26 18:56:00,
2013-01-26 13:01:00,52.7,31.4,30.25,ESE,118,3.1,3.5,44,0.00,CLR,,0.00,WeatherDisplay:10.37,2013-01-26 19:01:00,
2013-01-26 13:06:00,52.7,31.4,30.25,South,172,3.6,5.8,44,0.00,CLR,,0.00,WeatherDisplay:10.37,2013-01-26 19:06:00,
2013-01-26 13:11:00,52.9,31.5,30.25,SE,142,3.6,5.8,44,0.00,CLR,,0.00,WeatherDisplay:10.37,2013-01-26 19:11:00,
2013-01-26 13:16:00,52.9,31.5,30.25,South,176,3.1,3.5,44,0.00,CLR,,0.00,WeatherDisplay:10.37,2013-01-26 19:16:00,
2013-01-26 13:21:00,52.9,31.5,30.25,SSE,164,3.6,3.6,44,0.00,CLR,,0.00,WeatherDisplay:10.37,2013-01-26 19:21:00,
2013-01-26 13:26:00,53.1,31.7,30.25,East,87,2.7,4.6,44,0.00,CLR,,0.00,WeatherDisplay:10.37,2013-01-26 19:26:00,
2013-01-26 13:31:00,53.1,31.7,30.25,ENE,78,3.1,3.5,44,0.00,CLR,,0.00,WeatherDisplay:10.37,2013-01-26 19:31:00,
2013-01-26 13:36:00,53.1,31.7,30.25,ENE,65,4.0,4.0,44,0.00,CLR,,0.00,WeatherDisplay:10.37,2013-01-26 19:36:00,
2013-01-26 13:41:00,52.9,31.5,30.25,SE,135,2.7,3.5,44,0.00,CLR,,0.00,WeatherDisplay:10.37,2013-01-26 19:41:00,
2013-01-26 13:46:00,52.9,31.5,30.25,SSE,151,2.2,6.9,44,0.00,CLR,,0.00,WeatherDisplay:10.37,2013-01-26 19:46:00,
2013-01-26 13:51:00,53.1,31.7,30.25,ESE,102,2.2,4.6,44,0.00,CLR,,0.00,WeatherDisplay:10.37,2013-01-26 19:51:00,
2013-01-26 13:56:00,53.1,31.7,30.25,East,84,0.0,2.3,44,0.00,CLR,,0.00,WeatherDisplay:10.37,2013-01-26 19:56:00,
2013-01-26 14:01:00,52.9,31.5,30.25,SE,133,3.1,4.6,44,0.00,CLR,,0.00,WeatherDisplay:10.37,2013-01-26 20:01:00,
2013-01-26 14:06:00,53.1,31.7,30.25,SSW,193,2.7,3.5,44,0.00,CLR,,0.00,WeatherDisplay:10.37,2013-01-26 20:06:00,
2013-01-26 14:11:00,52.9,31.5,30.25,SE,128,3.1,5.8,44,0.00,CLR,,0.00,WeatherDisplay:10.37,2013-01-26 20:11:00,
2013-01-26 14:16:00,52.9,31.5,30.25,SSE,149,3.1,5.8,44,0.00,CLR,,0.00,WeatherDisplay:10.37,2013-01-26 20:16:00,
2013-01-26 14:21:00,52.9,31.5,30.25,SE,129,4.0,4.0,44,0.00,CLR,,0.00,WeatherDisplay:10.37,2013-01-26 20:21:00,
2013-01-26 14:26:00,52.9,31.5,30.25,ESE,122,5.4,5.8,44,0.00,CLR,,0.00,WeatherDisplay:10.37,2013-01-26 20:26:00,
2013-01-26 14:31:00,52.9,31.5,30.25,East,90,3.6,3.6,44,0.00,CLR,,0.00,WeatherDisplay:10.37,2013-01-26 20:31:00,
2013-01-26 14:36:00,52.9,31.5,30.25,ESE,106,2.7,3.5,44,0.00,CLR,,0.00,WeatherDisplay:10.37,2013-01-26 20:36:00,
2013-01-26 14:41:00,52.9,31.5,30.25,NE,54,3.1,5.8,44,0.00,CLR,,0.00,WeatherDisplay:10.37,2013-01-26 20:41:00,
2013-01-26 14:46:00,52.7,31.4,30.22,ESE,117,3.6,3.6,44,0.00,CLR,,0.00,WeatherDisplay:10.37,2013-01-26 20:46:00,
2013-01-26 14:51:00,52.9,31.5,30.22,ENE,74,0.0,2.3,44,0.00,CLR,,0.00,WeatherDisplay:10.37,2013-01-26 20:51:00,
2013-01-26 14:56:00,53.1,31.7,30.22,SE,128,3.1,3.5,44,0.00,CLR,,0.00,WeatherDisplay:10.37,2013-01-26 20:56:00,
2013-01-26 15:01:00,52.9,31.5,30.22,ESE,110,4.0,5.8,44,0.00,CLR,,0.00,WeatherDisplay:10.37,2013-01-26 21:01:00,
2013-01-26 15:06:00,52.7,31.4,30.22,ESE,118,2.7,2.7,44,0.00,CLR,,0.00,WeatherDisplay:10.37,2013-01-26 21:06:00,
2013-01-26 15:11:00,52.5,31.2,30.22,ENE,62,4.5,5.8,44,0.00,CLR,,0.00,WeatherDisplay:10.37,2013-01-26 21:11:00,
2013-01-26 15:16:00,52.3,31.0,30.22,ESE,118,3.6,5.8,44,0.00,CLR,,0.00,WeatherDisplay:10.37,2013-01-26 21:16:00,
2013-01-26 16:27:00,49.3,28.8,30.22,SE,129,0.0,3.5,45,0.00,CLR,,0.00,WeatherDisplay:10.37,2013-01-26 22:27:00,
2013-01-26 16:32:00,48.9,28.5,30.22,SE,133,0.0,2.3,45,0.00,CLR,,0.00,WeatherDisplay:10.37,2013-01-26 22:32:00,
2013-01-26 16:37:00,48.6,28.2,30.22,SSE,147,0.0,3.5,45,0.00,CLR,,0.00,WeatherDisplay:10.37,2013-01-26 22:37:00,
2013-01-26 16:42:00,48.2,27.8,30.22,SE,144,0.0,3.5,45,0.00,CLR,,0.00,WeatherDisplay:10.37,2013-01-26 22:42:00,
2013-01-26 16:47:00,47.8,27.5,30.22,SSE,160,0.0,0.0,45,0.00,CLR,,0.00,WeatherDisplay:10.37,2013-01-26 22:47:00,
2013-01-26 16:52:00,47.5,27.2,30.22,SSE,148,0.0,0.0,45,0.00,CLR,,0.00,WeatherDisplay:10.37,2013-01-26 22:52:00,
2013-01-26 16:57:00,47.1,26.8,30.22,SSE,148,0.0,0.0,45,0.00,CLR,,0.00,WeatherDisplay:10.37,2013-01-26 22:57:00,
2013-01-26 17:02:00,46.8,26.5,30.22,SSE,148,0.0,0.0,45,0.00,CLR,,0.00,WeatherDisplay:10.37,2013-01-26 23:02:00,
2013-01-26 17:07:00,46.6,26.4,30.22,SSE,148,0.0,0.0,45,0.00,CLR,,0.00,WeatherDisplay:10.37,2013-01-26 23:07:00,
2013-01-26 17:12:00,46.6,26.4,30.22,SSE,148,0.0,0.0,45,0.00,CLR,,0.00,WeatherDisplay:10.37,2013-01-26 23:12:00,
2013-01-26 17:17:00,46.2,26.6,30.22,SSE,148,0.0,0.0,46,0.00,CLR,,0.00,WeatherDisplay:10.37,2013-01-26 23:17:00,
2013-01-26 17:22:00,46.2,26.6,30.22,SSE,148,0.0,0.0,46,0.00,CLR,,0.00,WeatherDisplay:10.37,2013-01-26 23:22:00,
2013-01-26 17:27:00,46.0,26.4,30.22,SSE,148,0.0,0.0,46,0.00,CLR,,0.00,WeatherDisplay:10.37,2013-01-26 23:27:00,
2013-01-26 17:32:00,46.0,26.4,30.22,SSE,148,0.0,0.0,46,0.00,CLR,,0.00,WeatherDisplay:10.37,2013-01-26 23:32:00,
2013-01-26 17:37:00,46.0,26.4,30.22,SSE,148,0.0,0.0,46,0.00,CLR,,0.00,WeatherDisplay:10.37,2013-01-26 23:37:00,
2013-01-26 17:42:00,46.0,26.4,30.22,SSE,148,0.0,2.3,46,0.00,CLR,,0.00,WeatherDisplay:10.37,2013-01-26 23:42:00,
2013-01-26 17:47:00,46.0,26.4,30.25,SE,146,2.7,3.5,46,0.00,CLR,,0.00,WeatherDisplay:10.37,2013-01-26 23:47:00,
2013-01-26 17:52:00,46.0,26.4,30.25,East,93,0.0,0.0,46,0.00,CLR,,0.00,WeatherDisplay:10.37,2013-01-26 23:52:00,
2013-01-26 17:57:00,46.0,26.4,30.25,East,84,2.2,2.3,46,0.00,CLR,,0.00,WeatherDisplay:10.37,2013-01-26 23:57:00,
2013-01-26 18:02:00,46.0,26.4,30.22,ENE,71,2.7,3.5,46,0.00,CLR,,0.00,WeatherDisplay:10.37,2013-01-27 00:02:00,
2013-01-26 18:07:00,46.0,26.4,30.22,ENE,73,3.1,3.6,46,0.00,CLR,,0.00,WeatherDisplay:10.37,2013-01-27 00:07:00,
2013-01-26 18:12:00,45.9,26.2,30.22,NE,50,2.2,5.8,46,0.00,CLR,,0.00,WeatherDisplay:10.37,2013-01-27 00:12:00,
2013-01-26 18:17:00,45.7,26.1,30.25,East,82,3.1,3.5,46,0.00,CLR,,0.00,WeatherDisplay:10.37,2013-01-27 00:17:00,
2013-01-26 18:22:00,45.5,25.9,30.25,East,98,2.2,2.3,46,0.00,CLR,,0.00,WeatherDisplay:10.37,2013-01-27 00:22:00,
2013-01-26 18:27:00,45.5,25.9,30.25,ENE,70,4.5,5.8,46,0.00,CLR,,0.00,WeatherDisplay:10.37,2013-01-27 00:27:00,
2013-01-26 18:32:00,45.3,25.7,30.25,ENE,62,3.6,5.8,46,0.00,CLR,,0.00,WeatherDisplay:10.37,2013-01-27 00:32:00,
2013-01-26 18:37:00,45.1,25.6,30.25,ENE,66,4.0,4.0,46,0.00,CLR,,0.00,WeatherDisplay:10.37,2013-01-27 00:37:00,
2013-01-26 18:42:00,45.1,25.6,30.25,ENE,69,2.2,4.6,46,0.00,CLR,,0.00,WeatherDisplay:10.37,2013-01-27 00:42:00,
2013-01-26 18:47:00,44.8,25.2,30.25,East,79,2.7,3.5,46,0.00,CLR,,0.00,WeatherDisplay:10.37,2013-01-27 00:47:00,
2013-01-26 18:52:00,44.8,25.2,30.25,ENE,69,3.1,3.5,46,0.00,CLR,,0.00,WeatherDisplay:10.37,2013-01-27 00:52:00,
2013-01-26 18:57:00,44.6,25.1,30.25,East,82,2.7,4.6,46,0.00,CLR,,0.00,WeatherDisplay:10.37,2013-01-27 00:57:00,
2013-01-26 19:02:00,44.6,25.1,30.25,East,80,2.7,3.5,46,0.00,CLR,,0.00,WeatherDisplay:10.37,2013-01-27 01:02:00,
2013-01-26 19:07:00,44.4,26.4,30.25,East,84,2.2,3.5,49,0.00,CLR,,0.00,WeatherDisplay:10.37,2013-01-27 01:07:00,
2013-01-26 19:12:00,44.2,26.3,30.25,ESE,102,2.7,3.5,49,0.00,CLR,,0.00,WeatherDisplay:10.37,2013-01-27 01:12:00,
2013-01-26 19:17:00,44.2,26.3,30.25,ENE,63,2.2,3.5,49,0.00,CLR,,0.00,WeatherDisplay:10.37,2013-01-27 01:17:00,
2013-01-26 19:22:00,44.2,26.3,30.25,East,95,2.2,3.5,49,0.00,CLR,,0.00,WeatherDisplay:10.37,2013-01-27 01:22:00,
2013-01-26 19:27:00,44.2,26.3,30.25,East,86,2.7,3.5,49,0.00,CLR,,0.00,WeatherDisplay:10.37,2013-01-27 01:27:00,
2013-01-26 19:32:00,44.1,26.1,30.25,ESE,118,3.1,4.6,49,0.00,CLR,,0.00,WeatherDisplay:10.37,2013-01-27 01:32:00,
2013-01-26 19:37:00,44.1,26.1,30.25,SE,131,2.2,3.5,49,0.00,CLR,,0.00,WeatherDisplay:10.37,2013-01-27 01:37:00,
2013-01-26 19:42:00,43.9,25.9,30.25,SE,136,0.0,0.0,49,0.00,CLR,,0.00,WeatherDisplay:10.37,2013-01-27 01:42:00,
2013-01-26 19:47:00,43.7,25.8,30.25,SE,136,0.0,0.0,49,0.00,CLR,,0.00,WeatherDisplay:10.37,2013-01-27 01:47:00,
2013-01-26 19:52:00,43.5,25.6,30.25,SE,136,0.0,0.0,49,0.00,CLR,,0.00,WeatherDisplay:10.37,2013-01-27 01:52:00,
2013-01-26 19:57:00,43.3,25.4,30.25,SE,129,0.0,2.3,49,0.00,CLR,,0.00,WeatherDisplay:10.37,2013-01-27 01:57:00,
2013-01-26 20:02:00,43.0,25.1,30.25,SSE,160,2.2,2.3,49,0.00,CLR,,0.00,WeatherDisplay:10.37,2013-01-27 02:02:00,
2013-01-26 20:07:00,42.8,24.9,30.25,South,172,0.0,0.0,49,0.00,CLR,,0.00,WeatherDisplay:10.37,2013-01-27 02:07:00,
2013-01-26 20:12:00,42.8,24.9,30.25,ESE,109,0.0,3.5,49,0.00,CLR,,0.00,WeatherDisplay:10.37,2013-01-27 02:12:00,
2013-01-26 20:17:00,42.6,24.8,30.25,ESE,109,0.0,2.3,49,0.00,CLR,,0.00,WeatherDisplay:10.37,2013-01-27 02:17:00,
2013-01-26 20:22:00,42.4,24.6,30.25,ESE,123,0.0,0.0,49,0.00,CLR,,0.00,WeatherDisplay:10.37,2013-01-27 02:22:00,
2013-01-26 20:27:00,42.3,24.4,30.25,ESE,123,0.0,0.0,49,0.00,CLR,,0.00,WeatherDisplay:10.37,2013-01-27 02:27:00,
2013-01-26 20:32:00,42.4,24.6,30.25,SE,128,0.0,0.0,49,0.00,CLR,,0.00,WeatherDisplay:10.37,2013-01-27 02:32:00,
2013-01-26 20:37:00,42.4,24.6,30.25,ESE,114,0.0,0.0,49,0.00,CLR,,0.00,WeatherDisplay:10.37,2013-01-27 02:37:00,
2013-01-26 20:42:00,42.6,24.8,30.25,ESE,114,0.0,0.0,49,0.00,CLR,,0.00,WeatherDisplay:10.37,2013-01-27 02:42:00,
2013-01-26 20:47:00,42.8,24.9,30.25,ESE,103,2.7,3.5,49,0.00,CLR,,0.00,WeatherDisplay:10.37,2013-01-27 02:47:00,
2013-01-26 20:52:00,42.8,24.9,30.25,ESE,118,0.0,0.0,49,0.00,CLR,,0.00,WeatherDisplay:10.37,2013-01-27 02:52:00,
2013-01-26 20:57:00,42.6,24.8,30.25,SSE,153,0.0,2.3,49,0.00,CLR,,0.00,WeatherDisplay:10.37,2013-01-27 02:57:00,
2013-01-26 21:02:00,42.4,24.6,30.25,SSE,153,0.0,0.0,49,0.00,CLR,,0.00,WeatherDisplay:10.37,2013-01-27 03:02:00,
2013-01-26 21:07:00,42.4,24.6,30.25,SSE,153,0.0,0.0,49,0.00,CLR,,0.00,WeatherDisplay:10.37,2013-01-27 03:07:00,
2013-01-26 21:12:00,42.3,24.4,30.25,SSE,153,0.0,0.0,49,0.00,CLR,,0.00,WeatherDisplay:10.37,2013-01-27 03:12:00,
2013-01-26 21:17:00,42.1,24.3,30.25,SSE,153,0.0,0.0,49,0.00,CLR,,0.00,WeatherDisplay:10.37,2013-01-27 03:17:00,
2013-01-26 21:22:00,41.9,24.1,30.25,SSE,153,0.0,0.0,49,0.00,CLR,,0.00,WeatherDisplay:10.37,2013-01-27 03:22:00,
2013-01-26 21:27:00,41.5,23.8,30.25,SSE,153,0.0,0.0,49,0.00,CLR,,0.00,WeatherDisplay:10.37,2013-01-27 03:27:00,
2013-01-26 21:32:00,41.2,23.4,30.25,SSE,153,0.0,0.0,49,0.00,CLR,,0.00,WeatherDisplay:10.37,2013-01-27 03:32:00,
2013-01-26 21:37:00,40.8,23.1,30.25,SSE,153,0.0,0.0,49,0.00,CLR,,0.00,WeatherDisplay:10.37,2013-01-27 03:37:00,
2013-01-26 21:42:00,40.5,22.8,30.25,SSE,153,0.0,0.0,49,0.00,CLR,,0.00,WeatherDisplay:10.37,2013-01-27 03:42:00,
2013-01-26 21:47:00,40.3,22.6,30.25,SSE,153,0.0,0.0,49,0.00,CLR,,0.00,WeatherDisplay:10.37,2013-01-27 03:47:00,
2013-01-26 21:52:00,40.1,22.4,30.25,SSE,153,0.0,0.0,49,0.00,CLR,,0.00,WeatherDisplay:10.37,2013-01-27 03:52:00,
2013-01-26 21:57:00,39.7,23.5,30.25,SSE,153,0.0,0.0,52,0.00,CLR,,0.00,WeatherDisplay:10.37,2013-01-27 03:57:00,
2013-01-26 22:02:00,39.6,23.4,30.25,SSE,153,0.0,0.0,52,0.00,CLR,,0.00,WeatherDisplay:10.37,2013-01-27 04:02:00,
2013-01-26 22:07:00,39.4,23.2,30.25,ESE,109,0.0,0.0,52,0.00,CLR,,0.00,WeatherDisplay:10.37,2013-01-27 04:07:00,
2013-01-26 22:12:00,39.2,23.0,30.25,ESE,109,0.0,0.0,52,0.00,CLR,,0.00,WeatherDisplay:10.37,2013-01-27 04:12:00,
2013-01-26 22:17:00,39.0,22.9,30.25,ESE,109,0.0,0.0,52,0.00,CLR,,0.00,WeatherDisplay:10.37,2013-01-27 04:17:00,
2013-01-26 22:22:00,39.0,22.9,30.25,East,85,2.2,3.5,52,0.00,CLR,,0.00,WeatherDisplay:10.37,2013-01-27 04:22:00,
2013-01-26 22:27:00,39.0,22.9,30.25,ENE,75,0.0,2.3,52,0.00,CLR,,0.00,WeatherDisplay:10.37,2013-01-27 04:27:00,
2013-01-26 22:32:00,38.8,22.7,30.25,ENE,75,0.0,0.0,52,0.00,CLR,,0.00,WeatherDisplay:10.37,2013-01-27 04:32:00,
2013-01-26 22:37:00,38.7,22.5,30.25,ENE,75,0.0,0.0,52,0.00,CLR,,0.00,WeatherDisplay:10.37,2013-01-27 04:37:00,
2013-01-26 22:42:00,38.5,23.7,30.25,ENE,75,0.0,3.5,55,0.00,CLR,,0.00,WeatherDisplay:10.37,2013-01-27 04:42:00,
2013-01-26 22:47:00,38.5,23.7,30.25,ENE,72,2.7,2.7,55,0.00,CLR,,0.00,WeatherDisplay:10.37,2013-01-27 04:47:00,
2013-01-26 22:52:00,38.5,23.7,30.25,ENE,72,0.0,0.0,55,0.00,CLR,,0.00,WeatherDisplay:10.37,2013-01-27 04:52:00,
2013-01-26 22:57:00,38.5,23.7,30.25,ENE,72,2.7,2.7,55,0.00,CLR,,0.00,WeatherDisplay:10.37,2013-01-27 04:57:00,
2013-01-26 23:00:00,38.5,23.7,30.25,ENE,72,0.0,0.0,55,0.00,CLR,,0.00,WeatherDisplay:10.37,2013-01-27 05:00:00,
2013-01-26 23:01:00,38.5,23.7,30.25,ENE,72,0.0,0.0,55,0.00,CLR,,0.00,WeatherDisplay:10.37,2013-01-27 05:01:00,
2013-01-26 23:03:00,38.5,23.7,30.25,ENE,72,0.0,0.0,55,0.00,CLR,,0.00,WeatherDisplay:10.37,2013-01-27 05:03:00,
2013-01-26 23:08:00,38.7,23.9,30.25,ENE,72,2.2,3.5,55,0.00,CLR,,0.00,WeatherDisplay:10.37,2013-01-27 05:08:00,
2013-01-26 23:13:00,38.7,23.9,30.25,ENE,72,0.0,0.0,55,0.00,CLR,,0.00,WeatherDisplay:10.37,2013-01-27 05:13:00,
2013-01-26 23:18:00,38.7,23.9,30.22,ENE,67,2.7,3.6,55,0.00,CLR,,0.00,WeatherDisplay:10.37,2013-01-27 05:18:00,
2013-01-26 23:23:00,38.7,23.9,30.22,ENE,68,2.7,3.5,55,0.00,CLR,,0.00,WeatherDisplay:10.37,2013-01-27 05:23:00,
2013-01-26 23:28:00,38.7,23.9,30.22,ENE,68,0.0,0.0,55,0.00,CLR,,0.00,WeatherDisplay:10.37,2013-01-27 05:28:00,
2013-01-26 23:33:00,38.7,22.5,30.22,ENE,68,0.0,0.0,52,0.00,CLR,,0.00,WeatherDisplay:10.37,2013-01-27 05:33:00,
2013-01-26 23:38:00,38.5,22.4,30.22,ENE,68,0.0,0.0,52,0.00,CLR,,0.00,WeatherDisplay:10.37,2013-01-27 05:38:00,
2013-01-26 23:43:00,38.5,22.4,30.22,ENE,68,0.0,0.0,52,0.00,CLR,,0.00,WeatherDisplay:10.37,2013-01-27 05:43:00,
2013-01-26 23:48:00,38.3,22.2,30.22,ENE,68,0.0,0.0,52,0.00,CLR,,0.00,WeatherDisplay:10.37,2013-01-27 05:48:00,
2013-01-26 23:53:00,38.1,22.0,30.22,ENE,68,0.0,0.0,52,0.00,CLR,,0.00,WeatherDisplay:10.37,2013-01-27 05:53:00,
2013-01-26 23:58:00,38.5,22.4,30.22,ENE,68,0.0,0.0,52,0.00,CLR,,0.00,WeatherDisplay:10.37,2013-01-27 05:58:00,